This is the latest recevied weather packets stored in our database for station/object VE4GLS. If no packets are shown the sender has not sent any weather packets the latest 10 day(s).
| Time | Temp. | Humidity | Pressure | Rain* | Wind** | Luminosity | Snow |
|---|---|---|---|---|---|---|---|
| 1778167054 | 6.67° C | 47% | 1009.6 hPa | 0 mm | - | - | - |
| 1778166696 | 6.67° C | 48% | 1009.7 hPa | 0 mm | - | - | - |
| 1778166155 | 6.11° C | 50% | 1009.7 hPa | 0 mm | - | - | - |
| 1778166094 | 6.11° C | 50% | 1009.7 hPa | 0 mm | - | - | - |
| 1778165495 | 5° C | 51% | 1009.7 hPa | 0 mm | - | - | - |
| 1778165254 | 5° C | 51% | 1009.7 hPa | 0 mm | - | - | - |
| 1778164894 | 5° C | 52% | 1009.7 hPa | 0 mm | - | - | - |
| 1778164355 | 5° C | 52% | 1009.7 hPa | 0 mm | - | - | - |
| 1778164294 | 5° C | 53% | 1009.7 hPa | 0 mm | - | - | - |
| 1778163695 | 4.44° C | 54% | 1009.7 hPa | 0 mm | - | - | - |
| 1778163455 | 3.89° C | 57% | 1009.8 hPa | 0 mm | - | - | - |
| 1778163094 | 3.89° C | 56% | 1009.8 hPa | 0 mm | - | - | - |
| 1778162554 | 3.33° C | 57% | 1009.8 hPa | 0 mm | - | - | - |
| 1778162494 | 3.33° C | 57% | 1009.8 hPa | 0 mm | - | - | - |
| 1778161894 | 3.33° C | 59% | 1009.9 hPa | 0 mm | - | - | - |
| 1778161654 | 2.78° C | 59% | 1010 hPa | 0 mm | - | - | - |
| 1778161296 | 2.22° C | 61% | 1009.9 hPa | 0 mm | - | - | - |
| 1778160756 | 1.67° C | 64% | 1009.9 hPa | 0 mm | - | - | - |
| 1778160696 | 1.67° C | 65% | 1009.9 hPa | 0 mm | - | - | - |
| 1778160094 | 0.56° C | 68% | 1009.9 hPa | 0 mm | - | - | - |
| 1778159854 | 0° C | 70% | 1010 hPa | 0 mm | - | - | - |
| 1778159494 | -0.56° C | 73% | 1009.9 hPa | 0 mm | - | - | - |
| 1778158954 | -1.11° C | 79% | 1010.1 hPa | 0 mm | - | - | - |
| 1778158894 | -1.67° C | 79% | 1010.1 hPa | 0 mm | - | - | - |
| 1778158296 | -2.78° C | 83% | 1009.8 hPa | 0 mm | - | - | - |
* Rain latest hour (hover to see other rain measurements)
** Current wind speed in m/s (hover to see current wind gust speed)